Time;durP1;ratioP1;P1;durP2;ratioP2;P2;SDS_P1;SDS_P2;PMS_P1;PMS_P2;Temp;Humidity;BMP_temperature;BMP_pressure;BME280_temperature;BME280_humidity;BME280_pressure;Samples;Min_cycle;Max_cycle;Signal;HPM_P1;HPM_P2
2021/11/19 00:01:48;;;;;;;37.15;21.77;;;11.70;99.90;;;;;;4163115;28;20049;-80
2021/11/19 00:03:49;;;;;;;37.22;17.40;;;11.70;99.90;;;;;;4155977;28;20033;-80
2021/11/19 00:05:50;;;;;;;30.38;19.08;;;11.70;99.90;;;;;;4158490;28;20094;-80
2021/11/19 00:07:53;;;;;;;39.17;19.50;;;11.70;99.90;;;;;;4168453;28;20063;-80
2021/11/19 00:09:56;;;;;;;36.13;19.10;;;11.70;99.90;;;;;;4159797;28;20184;-80
2021/11/19 00:11:56;;;;;;;30.50;19.10;;;11.70;99.90;;;;;;4170549;28;20063;-79
2021/11/19 00:13:58;;;;;;;38.85;19.52;;;11.70;99.90;;;;;;4169225;28;20038;-79
2021/11/19 00:16:06;;;;;;;35.22;18.95;;;11.60;99.90;;;;;;4178106;28;20045;-80
2021/11/19 00:18:06;;;;;;;36.95;19.95;;;11.60;99.90;;;;;;4157498;28;20052;-80
2021/11/19 00:20:14;;;;;;;29.38;18.27;;;11.70;99.90;;;;;;4147400;28;20469;-81
2021/11/19 00:22:18;;;;;;;30.30;18.13;;;11.70;99.90;;;;;;4171005;28;20040;-80
2021/11/19 00:24:20;;;;;;;30.00;18.40;;;11.80;99.90;;;;;;4166974;28;20087;-80
2021/11/19 00:26:23;;;;;;;33.40;19.27;;;11.80;99.90;;;;;;4174713;28;20043;-80
2021/11/19 00:28:24;;;;;;;34.20;17.60;;;11.80;99.90;;;;;;4163616;28;20388;-81
2021/11/19 00:30:28;;;;;;;27.60;16.45;;;11.90;99.90;;;;;;4162557;28;20037;-80
2021/11/19 00:32:29;;;;;;;28.45;18.95;;;11.90;99.90;;;;;;4161565;28;20046;-80
2021/11/19 00:34:30;;;;;;;29.00;17.77;;;11.80;99.90;;;;;;4148854;28;20097;-80
2021/11/19 00:36:35;;;;;;;31.90;18.33;;;11.80;99.90;;;;;;4159535;28;20069;-79
2021/11/19 00:38:38;;;;;;;26.35;18.13;;;11.80;99.90;;;;;;4150157;28;20585;-79
2021/11/19 00:40:48;;;;;;;31.58;18.63;;;11.80;99.90;;;;;;4166613;28;20037;-79
2021/11/19 00:42:49;;;;;;;24.17;17.10;;;11.80;99.90;;;;;;4164588;28;20048;-80
2021/11/19 00:44:52;;;;;;;26.63;17.80;;;11.80;99.90;;;;;;4175696;28;20041;-80
2021/11/19 00:46:54;;;;;;;28.93;17.30;;;11.90;99.90;;;;;;4156410;28;20124;-80
2021/11/19 00:48:55;;;;;;;28.80;17.73;;;12.00;99.90;;;;;;4177568;28;20779;-80
2021/11/19 00:51:11;;;;;;;32.08;18.30;;;11.90;99.90;;;;;;4159945;28;20029;-80
2021/11/19 00:53:12;;;;;;;28.02;20.15;;;11.90;99.90;;;;;;4162325;28;20056;-81
2021/11/19 00:55:13;;;;;;;30.33;18.83;;;12.00;99.90;;;;;;4173871;28;20591;-80
2021/11/19 00:57:18;;;;;;;22.33;15.45;;;11.90;99.90;;;;;;4171445;28;20050;-80
2021/11/19 00:59:21;;;;;;;28.73;17.60;;;12.00;99.90;;;;;;4158657;28;20385;-80
2021/11/19 01:01:31;;;;;;;26.73;18.83;;;12.00;99.90;;;;;;4162857;28;20190;-81
2021/11/19 01:03:35;;;;;;;20.75;11.82;;;11.90;99.90;;;;;;4168236;28;20045;-80
2021/11/19 01:05:36;;;;;;;28.45;19.13;;;12.00;99.90;;;;;;4145743;28;20475;-80
2021/11/19 01:07:38;;;;;;;25.50;18.65;;;11.90;99.90;;;;;;4155804;28;20037;-80
2021/11/19 01:09:45;;;;;;;30.15;16.90;;;11.90;99.90;;;;;;4147306;28;20077;-81
2021/11/19 01:11:48;;;;;;;34.10;20.50;;;11.90;99.90;;;;;;4172076;28;20033;-81
2021/11/19 01:13:52;;;;;;;38.45;21.83;;;11.90;99.90;;;;;;4172044;28;20128;-81
2021/11/19 01:16:02;;;;;;;27.83;20.25;;;11.90;99.90;;;;;;4165567;28;20047;-80
2021/11/19 01:18:14;;;;;;;35.28;22.02;;;11.90;99.90;;;;;;4155938;28;20038;-81
2021/11/19 01:21:07;;;;;;;31.48;21.58;;;11.90;99.90;;;;;;4182396;28;20503;-81
2021/11/19 01:23:11;;;;;;;31.90;21.80;;;11.90;99.90;;;;;;4172242;28;20453;-80
2021/11/19 01:25:16;;;;;;;32.92;23.27;;;11.80;99.90;;;;;;4157508;28;20060;-81
2021/11/19 01:27:18;;;;;;;35.20;21.63;;;11.70;99.90;;;;;;4161029;28;20125;-81
2021/11/19 01:29:20;;;;;;;37.60;22.77;;;11.80;99.90;;;;;;4159782;28;20049;-81
2021/11/19 01:31:40;;;;;;;29.75;20.52;;;11.80;99.90;;;;;;4158810;28;20124;-81
2021/11/19 01:33:44;;;;;;;37.00;22.13;;;11.80;99.90;;;;;;4162119;28;20033;-81
2021/11/19 01:35:46;;;;;;;34.70;22.90;;;11.70;99.90;;;;;;4164917;28;20037;-81
2021/11/19 01:37:47;;;;;;;33.25;21.10;;;11.70;99.90;;;;;;4188328;28;20037;-81
2021/11/19 01:39:48;;;;;;;33.38;21.05;;;11.70;99.90;;;;;;4162269;28;20029;-81
2021/11/19 01:42:00;;;;;;;36.25;24.35;;;11.70;99.90;;;;;;4170253;28;20086;-81
2021/11/19 01:44:11;;;;;;;33.50;23.42;;;11.70;99.90;;;;;;4169777;28;20032;-81
2021/11/19 01:46:21;;;;;;;34.50;24.20;;;11.70;99.90;;;;;;4170273;28;20037;-81
2021/11/19 01:48:30;;;;;;;35.60;23.10;;;11.70;99.90;;;;;;4161797;28;20041;-81
2021/11/19 01:50:39;;;;;;;43.22;25.83;;;11.70;99.90;;;;;;4165615;28;20049;-81
2021/11/19 01:53:04;;;;;;;39.08;25.73;;;11.60;99.90;;;;;;4180228;28;20048;-81
2021/11/19 01:55:18;;;;;;;39.25;24.02;;;11.70;99.90;;;;;;4178021;28;20127;-80
2021/11/19 01:57:32;;;;;;;33.97;24.95;;;11.70;99.90;;;;;;4167891;28;20419;-81
2021/11/19 01:59:46;;;;;;;;;;;11.70;99.90;;;;;;4159379;28;20757;-81
2021/11/19 02:02:15;;;;;;;37.03;25.25;;;11.70;99.90;;;;;;4160212;28;19948;-81
2021/11/19 02:04:27;;;;;;;39.67;25.60;;;11.60;99.90;;;;;;4162202;28;20033;-81
2021/11/19 02:06:37;;;;;;;38.90;24.20;;;11.50;99.90;;;;;;4173722;28;20144;-82
2021/11/19 02:08:41;;;;;;;37.83;24.52;;;11.50;99.90;;;;;;4169816;28;20759;-81
2021/11/19 02:11:36;;;;;;;35.70;26.15;;;11.70;99.90;;;;;;4160818;28;20764;-81
2021/11/19 02:14:10;;;;;;;40.33;25.27;;;11.60;99.90;;;;;;4156668;28;20346;-81
2021/11/19 02:16:17;;;;;;;45.67;26.80;;;11.60;99.90;;;;;;4157868;28;20045;-81
2021/11/19 02:19:04;;;;;;;36.38;25.63;;;11.60;99.90;;;;;;4151141;28;20048;-81
2021/11/19 02:21:11;;;;;;;40.72;24.05;;;11.60;99.90;;;;;;4158872;28;20168;-81
2021/11/19 02:23:21;;;;;;;40.28;25.50;;;11.70;99.90;;;;;;4150455;28;20067;-81
2021/11/19 02:25:32;;;;;;;42.05;25.60;;;11.70;99.90;;;;;;4172258;28;20040;-81
2021/11/19 02:28:10;;;;;;;41.78;28.75;;;11.70;99.90;;;;;;4160835;28;20037;-81
2021/11/19 02:30:27;;;;;;;43.42;25.92;;;11.60;99.90;;;;;;4135318;28;20117;-81
2021/11/19 02:32:39;;;;;;;48.22;27.17;;;11.60;99.90;;;;;;4119252;28;20046;-81
2021/11/19 02:34:41;;;;;;;37.55;28.25;;;11.60;99.90;;;;;;4166442;28;20075;-81
2021/11/19 02:36:50;;;;;;;34.87;26.17;;;11.70;99.90;;;;;;4166657;28;20172;-81
2021/11/19 02:38:58;;;;;;;39.55;27.30;;;11.70;99.90;;;;;;4172365;28;20403;-82
2021/11/19 02:41:01;;;;;;;40.03;25.20;;;11.70;99.90;;;;;;4174936;28;20496;-81
2021/11/19 02:43:17;;;;;;;38.90;25.67;;;11.80;99.90;;;;;;4151363;28;20462;-82
2021/11/19 02:45:30;;;;;;;42.00;25.35;;;11.80;99.90;;;;;;4138182;28;20042;-80
2021/11/19 02:47:31;;;;;;;50.65;26.65;;;11.70;99.90;;;;;;4170887;28;20044;-80
2021/11/19 02:49:32;;;;;;;42.15;27.38;;;11.70;99.90;;;;;;4177043;28;20043;-80
2021/11/19 02:51:35;;;;;;;47.00;25.40;;;11.80;99.90;;;;;;4159223;28;20038;-81
2021/11/19 02:53:37;;;;;;;38.07;26.87;;;11.80;99.90;;;;;;4178111;28;20231;-81
2021/11/19 02:55:44;;;;;;;36.00;24.30;;;11.80;99.90;;;;;;4151244;28;20288;-80
2021/11/19 02:57:47;;;;;;;37.83;24.98;;;11.80;99.90;;;;;;4151508;28;20045;-80
2021/11/19 02:59:48;;;;;;;45.40;27.70;;;11.80;99.90;;;;;;4159920;28;20041;-80
2021/11/19 03:02:07;;;;;;;40.40;28.30;;;11.80;99.90;;;;;;4160140;28;20025;-80
2021/11/19 03:04:13;;;;;;;43.97;26.52;;;11.80;99.90;;;;;;4153715;28;20409;-81
2021/11/19 03:06:15;;;;;;;41.33;27.77;;;11.80;99.90;;;;;;4162820;28;20104;-80
2021/11/19 03:08:17;;;;;;;38.38;28.27;;;11.70;99.90;;;;;;4159904;28;20045;-80
2021/11/19 03:10:26;;;;;;;39.00;28.40;;;11.80;99.90;;;;;;4169776;28;20590;-80
2021/11/19 03:12:35;;;;;;;40.97;24.75;;;11.80;99.90;;;;;;4163185;28;20116;-80
2021/11/19 03:14:36;;;;;;;37.03;27.08;;;11.80;99.90;;;;;;4169264;28;20071;-80
2021/11/19 03:16:40;;;;;;;42.13;27.88;;;11.80;99.90;;;;;;4167623;28;20132;-80
2021/11/19 03:18:41;;;;;;;45.55;27.63;;;11.80;99.90;;;;;;4152842;28;20820;-81
2021/11/19 03:20:45;;;;;;;37.25;27.13;;;11.70;99.90;;;;;;4150614;28;20526;-80
2021/11/19 03:22:47;;;;;;;46.70;25.40;;;11.80;99.90;;;;;;4169965;28;20029;-81
2021/11/19 03:24:49;;;;;;;45.30;29.07;;;11.80;99.90;;;;;;4167576;28;20095;-81
2021/11/19 03:26:54;;;;;;;41.00;29.70;;;11.80;99.90;;;;;;4157900;28;20096;-80
2021/11/19 03:28:55;;;;;;;41.17;28.70;;;11.70;99.90;;;;;;4174229;28;20552;-80
2021/11/19 03:31:07;;;;;;;44.95;28.73;;;11.70;99.90;;;;;;4174302;28;20065;-80
2021/11/19 03:33:13;;;;;;;44.92;28.98;;;11.70;99.90;;;;;;4155120;28;20041;-80
2021/11/19 03:35:20;;;;;;;47.00;29.30;;;11.70;99.90;;;;;;4166627;28;20049;-81
2021/11/19 03:37:22;;;;;;;42.38;30.15;;;11.60;99.90;;;;;;4160148;28;20064;-81
2021/11/19 03:39:27;;;;;;;44.10;30.00;;;11.60;99.90;;;;;;4176773;28;20040;-80
2021/11/19 03:41:31;;;;;;;44.97;30.35;;;11.60;99.90;;;;;;4160085;28;20289;-81
2021/11/19 03:43:47;;;;;;;47.10;30.67;;;11.60;99.90;;;;;;4175221;28;20115;-81
2021/11/19 03:45:56;;;;;;;38.92;28.50;;;11.60;99.90;;;;;;4168179;28;20063;-80
2021/11/19 03:47:58;;;;;;;45.05;30.85;;;11.70;99.90;;;;;;4171118;28;20049;-80
2021/11/19 03:50:11;;;;;;;47.63;30.30;;;11.60;99.90;;;;;;4143630;28;20077;-81
2021/11/19 03:52:23;;;;;;;41.08;30.88;;;11.60;99.90;;;;;;4172930;28;20797;-81
2021/11/19 03:54:27;;;;;;;44.35;28.55;;;11.60;99.90;;;;;;4170124;28;20043;-80
2021/11/19 03:56:28;;;;;;;53.03;31.65;;;11.60;99.90;;;;;;4149759;28;20045;-81
2021/11/19 03:58:32;;;;;;;46.25;29.65;;;11.60;99.90;;;;;;4154115;28;20042;-81
2021/11/19 04:00:42;;;;;;;48.00;33.00;;;11.60;99.90;;;;;;4159234;28;20589;-81
2021/11/19 04:02:43;;;;;;;51.95;31.38;;;11.60;99.90;;;;;;4144547;28;20097;-80
2021/11/19 04:04:46;;;;;;;52.22;34.60;;;11.50;99.90;;;;;;4163607;28;20037;-80
2021/11/19 04:06:47;;;;;;;47.63;31.02;;;11.50;99.90;;;;;;4165846;28;20066;-80
2021/11/19 04:08:50;;;;;;;52.35;32.85;;;11.50;99.90;;;;;;4171488;28;20037;-81
2021/11/19 04:10:52;;;;;;;47.85;29.88;;;11.50;99.90;;;;;;4159405;28;20080;-80
2021/11/19 04:12:54;;;;;;;53.90;34.47;;;11.50;99.90;;;;;;4173725;28;20124;-81
2021/11/19 04:15:04;;;;;;;50.28;33.08;;;11.50;99.90;;;;;;4161977;28;20433;-80
2021/11/19 04:17:06;;;;;;;54.55;34.78;;;11.50;99.90;;;;;;4167579;28;20535;-80
2021/11/19 04:19:09;;;;;;;59.53;36.53;;;11.50;99.90;;;;;;4166557;28;20037;-81
2021/11/19 04:21:10;;;;;;;58.95;35.42;;;11.50;99.90;;;;;;4156825;28;20459;-80
2021/11/19 04:23:12;;;;;;;64.95;33.65;;;11.50;99.90;;;;;;4186118;28;20036;-80
2021/11/19 04:25:16;;;;;;;49.90;33.75;;;11.50;99.90;;;;;;4151878;28;20045;-81
2021/11/19 04:27:18;;;;;;;46.88;32.15;;;11.50;99.90;;;;;;4178033;28;20037;-80
2021/11/19 04:29:20;;;;;;;53.30;32.95;;;11.60;99.90;;;;;;4167025;28;20041;-80
2021/11/19 04:31:24;;;;;;;54.40;33.03;;;11.50;99.90;;;;;;4173814;28;20150;-80
2021/11/19 04:33:26;;;;;;;57.17;34.33;;;11.60;99.90;;;;;;4157949;28;20045;-80
2021/11/19 04:35:28;;;;;;;55.20;35.47;;;11.60;99.90;;;;;;4163933;28;20048;-81
2021/11/19 04:37:35;;;;;;;56.57;35.80;;;11.50;99.90;;;;;;4159219;28;20135;-81
2021/11/19 04:39:36;;;;;;;58.83;34.88;;;11.40;99.90;;;;;;4173316;28;20308;-80
2021/11/19 04:41:40;;;;;;;55.55;36.10;;;11.40;99.90;;;;;;4173971;28;20124;-80
2021/11/19 04:43:40;;;;;;;55.92;34.60;;;11.50;99.90;;;;;;4156842;28;20042;-80
2021/11/19 04:45:41;;;;;;;60.92;35.08;;;11.50;99.90;;;;;;4162843;28;20480;-80
2021/11/19 04:47:45;;;;;;;55.38;34.80;;;11.50;99.90;;;;;;4182811;28;20099;-80
2021/11/19 04:49:46;;;;;;;58.20;34.58;;;11.50;99.90;;;;;;4172966;28;20041;-80
2021/11/19 04:51:49;;;;;;;50.25;33.45;;;11.60;99.90;;;;;;4172080;28;20439;-80
2021/11/19 04:53:51;;;;;;;53.40;34.40;;;11.60;99.90;;;;;;4173064;28;20036;-81
2021/11/19 04:56:00;;;;;;;53.08;35.83;;;11.60;99.90;;;;;;4162791;28;20038;-80
2021/11/19 04:58:01;;;;;;;54.38;35.30;;;11.50;99.90;;;;;;4178264;28;20124;-81
2021/11/19 05:00:13;;;;;;;53.70;35.33;;;11.50;99.90;;;;;;4159604;28;20038;-80
2021/11/19 05:02:20;;;;;;;57.13;34.87;;;11.50;99.90;;;;;;4151876;28;20156;-80
2021/11/19 05:04:21;;;;;;;55.15;35.15;;;11.50;99.90;;;;;;4172050;28;20283;-81
2021/11/19 05:06:23;;;;;;;51.17;34.28;;;11.50;99.90;;;;;;4172401;28;20033;-80
2021/11/19 05:08:25;;;;;;;55.65;36.35;;;11.60;99.90;;;;;;4174668;28;20059;-81
2021/11/19 05:10:26;;;;;;;55.83;34.75;;;11.60;99.90;;;;;;4167551;28;20920;-81
2021/11/19 05:12:36;;;;;;;56.08;35.47;;;11.50;99.90;;;;;;4160803;28;20030;-80
2021/11/19 05:14:44;;;;;;;55.35;36.42;;;11.50;99.90;;;;;;4157489;28;20072;-81
2021/11/19 05:16:45;;;;;;;61.10;37.42;;;11.40;99.90;;;;;;4172767;28;20650;-81
2021/11/19 05:18:47;;;;;;;61.33;36.75;;;11.40;99.90;;;;;;4174132;28;20494;-81
2021/11/19 05:20:49;;;;;;;65.73;36.03;;;11.40;99.90;;;;;;4154024;28;20041;-80
2021/11/19 05:22:52;;;;;;;56.92;36.75;;;11.50;99.90;;;;;;4161321;28;20041;-80
2021/11/19 05:24:53;;;;;;;64.25;38.42;;;11.50;99.90;;;;;;4161686;28;20057;-80
2021/11/19 05:26:56;;;;;;;48.45;33.03;;;11.60;99.90;;;;;;4159222;28;20037;-80
2021/11/19 05:29:00;;;;;;;55.58;36.10;;;11.60;99.90;;;;;;4165185;28;20080;-81
2021/11/19 05:31:04;;;;;;;47.65;31.42;;;11.60;99.90;;;;;;4144542;28;20091;-81
2021/11/19 05:33:07;;;;;;;55.63;34.38;;;11.70;99.90;;;;;;4169241;28;20045;-81
2021/11/19 05:35:14;;;;;;;52.50;35.20;;;11.70;99.90;;;;;;4166057;28;20041;-80
2021/11/19 05:37:15;;;;;;;59.92;36.33;;;11.70;99.90;;;;;;4153132;28;20119;-80
2021/11/19 05:39:16;;;;;;;52.05;30.77;;;11.60;99.90;;;;;;4171170;28;20052;-80
2021/11/19 05:41:26;;;;;;;56.63;34.30;;;11.60;99.90;;;;;;4157078;28;20104;-80
2021/11/19 05:43:27;;;;;;;58.17;33.25;;;11.70;99.90;;;;;;4172388;28;20037;-81
2021/11/19 05:45:30;;;;;;;55.53;33.50;;;11.70;99.90;;;;;;4157218;28;20412;-80
2021/11/19 05:47:31;;;;;;;56.53;34.92;;;11.70;99.90;;;;;;4150200;28;20042;-80
2021/11/19 05:49:33;;;;;;;50.08;33.25;;;11.60;99.90;;;;;;4165665;28;20063;-80
2021/11/19 05:51:36;;;;;;;55.65;33.63;;;11.50;99.90;;;;;;4170050;28;20047;-80
2021/11/19 05:53:38;;;;;;;51.47;33.40;;;11.50;99.90;;;;;;4153113;28;20075;-81
2021/11/19 05:55:43;;;;;;;63.40;33.78;;;11.50;99.90;;;;;;4172508;28;20486;-80
2021/11/19 05:57:44;;;;;;;55.72;33.45;;;11.50;99.90;;;;;;4149710;28;20030;-81
2021/11/19 05:59:45;;;;;;;53.08;34.72;;;11.60;99.90;;;;;;4164305;28;20144;-81
2021/11/19 06:01:47;;;;;;;56.60;34.60;;;11.60;99.90;;;;;;4170004;28;20515;-80
2021/11/19 06:03:53;;;;;;;51.95;35.13;;;11.60;99.90;;;;;;4172847;28;20041;-81
2021/11/19 06:05:54;;;;;;;49.10;33.70;;;11.60;99.90;;;;;;4170547;28;20071;-80
2021/11/19 06:07:55;;;;;;;51.63;32.72;;;11.60;99.90;;;;;;4184050;28;20084;-80
2021/11/19 06:09:58;;;;;;;55.03;33.80;;;11.60;99.90;;;;;;4174351;28;20029;-80
2021/11/19 06:12:09;;;;;;;54.70;34.38;;;11.50;99.90;;;;;;4173395;28;20040;-80
2021/11/19 06:14:25;;;;;;;48.00;33.05;;;11.60;99.90;;;;;;4173616;28;20029;-80
2021/11/19 06:16:35;;;;;;;50.20;34.38;;;11.60;99.90;;;;;;4145712;28;20073;-81
2021/11/19 06:18:46;;;;;;;57.03;35.63;;;11.60;99.90;;;;;;4160427;28;20044;-81
2021/11/19 06:21:00;;;;;;;54.50;33.40;;;11.60;99.90;;;;;;4159803;28;20505;-81
2021/11/19 06:23:11;;;;;;;58.70;33.38;;;11.60;99.90;;;;;;4169852;28;20040;-81
2021/11/19 06:25:21;;;;;;;54.75;32.78;;;11.50;99.90;;;;;;4170051;28;20052;-81
2021/11/19 06:27:30;;;;;;;59.03;34.22;;;11.60;99.90;;;;;;4172955;28;20385;-82
2021/11/19 06:29:31;;;;;;;53.20;34.35;;;11.60;99.90;;;;;;4155823;28;20049;-81
2021/11/19 06:31:47;;;;;;;63.53;35.15;;;11.50;99.90;;;;;;4181182;28;20037;-82
2021/11/19 06:33:50;;;;;;;53.95;34.35;;;11.60;99.90;;;;;;4169640;28;20427;-82
2021/11/19 06:35:51;;;;;;;54.40;33.67;;;11.50;99.90;;;;;;4166618;28;20385;-82
2021/11/19 06:37:59;;;;;;;52.50;35.22;;;11.60;99.90;;;;;;4176543;28;20275;-81
2021/11/19 06:40:03;;;;;;;53.13;35.33;;;11.60;99.90;;;;;;4156701;28;20096;-81
2021/11/19 06:42:06;;;;;;;53.05;32.47;;;11.60;99.90;;;;;;4169559;28;20029;-81
2021/11/19 06:44:10;;;;;;;53.55;34.20;;;11.70;99.90;;;;;;4156476;28;20528;-82
2021/11/19 06:46:26;;;;;;;56.05;36.33;;;11.70;99.90;;;;;;4171290;28;20037;-82
2021/11/19 06:48:32;;;;;;;48.22;33.35;;;11.70;99.90;;;;;;4157442;28;20042;-82
2021/11/19 06:50:38;;;;;;;55.97;35.33;;;11.80;99.90;;;;;;4178280;28;20044;-82
2021/11/19 06:52:48;;;;;;;48.90;32.92;;;11.80;99.90;;;;;;4162959;28;20044;-82
2021/11/19 06:54:49;;;;;;;64.32;34.55;;;11.70;99.90;;;;;;4154467;28;20185;-82
2021/11/19 06:56:51;;;;;;;49.92;33.20;;;11.70;99.90;;;;;;4151687;28;20045;-82
2021/11/19 06:58:52;;;;;;;56.53;33.83;;;11.70;99.90;;;;;;4172303;28;20045;-84
2021/11/19 07:00:57;;;;;;;53.00;33.15;;;11.60;99.90;;;;;;4172713;28;20037;-81
2021/11/19 07:03:04;;;;;;;55.45;35.75;;;11.60;99.90;;;;;;4173979;28;20464;-82
2021/11/19 07:05:11;;;;;;;54.95;35.58;;;11.60;99.90;;;;;;4175561;28;20024;-81
2021/11/19 07:07:14;;;;;;;58.83;35.88;;;11.60;99.90;;;;;;4169152;28;20032;-82
2021/11/19 07:09:18;;;;;;;44.63;31.23;;;11.50;99.90;;;;;;4148624;28;20061;-81
2021/11/19 07:11:22;;;;;;;54.58;35.63;;;11.60;99.90;;;;;;4162832;28;20045;-80
2021/11/19 07:13:25;;;;;;;55.85;31.50;;;11.60;99.90;;;;;;4168574;28;20179;-81
2021/11/19 07:15:27;;;;;;;58.70;34.47;;;11.60;99.90;;;;;;4170433;28;20677;-82
2021/11/19 07:17:35;;;;;;;54.42;35.28;;;11.70;99.90;;;;;;4158294;28;20110;-80
2021/11/19 07:19:38;;;;;;;44.58;31.23;;;11.60;99.90;;;;;;4164855;28;20552;-81
2021/11/19 07:21:40;;;;;;;47.83;31.83;;;11.70;99.90;;;;;;4169097;28;20041;-81
2021/11/19 07:23:41;;;;;;;49.05;33.70;;;11.70;99.90;;;;;;4166102;28;20402;-80
2021/11/19 07:25:42;;;;;;;47.35;31.15;;;11.70;99.90;;;;;;4174835;28;20041;-79
2021/11/19 07:27:54;;;;;;;47.35;32.63;;;11.70;99.90;;;;;;4171643;28;20041;-81
2021/11/19 07:30:08;;;;;;;49.00;33.42;;;11.60;99.90;;;;;;4170339;28;20048;-81
2021/11/19 07:32:16;;;;;;;47.90;32.42;;;11.60;99.90;;;;;;4173588;28;20029;-81
2021/11/19 07:34:17;;;;;;;46.40;32.85;;;11.60;99.90;;;;;;4171539;28;20040;-80
2021/11/19 07:36:21;;;;;;;51.05;32.60;;;11.60;99.90;;;;;;4167877;28;20489;-81
2021/11/19 07:38:24;;;;;;;47.15;28.75;;;11.60;99.90;;;;;;4160594;28;20083;-80
2021/11/19 07:40:29;;;;;;;47.70;31.50;;;11.70;99.90;;;;;;4168391;28;20469;-81
2021/11/19 07:42:30;;;;;;;49.30;31.10;;;11.70;99.90;;;;;;4176187;28;20033;-81
2021/11/19 07:44:31;;;;;;;53.67;30.40;;;11.70;99.90;;;;;;4159070;28;20524;-80
2021/11/19 07:46:33;;;;;;;45.85;29.85;;;11.80;99.90;;;;;;4163943;28;20045;-81
2021/11/19 07:48:39;;;;;;;44.38;28.38;;;11.90;99.90;;;;;;4170478;28;20432;-81
2021/11/19 07:50:45;;;;;;;40.20;27.08;;;12.00;99.90;;;;;;4157137;28;20133;-81
2021/11/19 07:52:46;;;;;;;38.67;27.70;;;12.00;99.90;;;;;;4177598;28;20048;-81
2021/11/19 07:54:46;;;;;;;45.40;27.55;;;12.10;99.90;;;;;;4178907;28;20163;-81
2021/11/19 07:56:50;;;;;;;39.15;26.38;;;12.10;99.90;;;;;;4167593;28;20045;-79
2021/11/19 07:58:51;;;;;;;37.80;26.65;;;12.10;99.90;;;;;;4165604;28;20048;-81
2021/11/19 08:00:55;;;;;;;34.00;26.67;;;12.00;99.90;;;;;;4156093;28;20038;-81
2021/11/19 08:02:58;;;;;;;35.90;24.38;;;12.00;99.90;;;;;;4151492;28;20044;-79
2021/11/19 08:05:00;;;;;;;42.78;26.55;;;11.90;99.90;;;;;;4168332;28;20072;-80
2021/11/19 08:07:03;;;;;;;39.17;27.30;;;11.90;99.90;;;;;;4162523;28;20450;-80
2021/11/19 08:09:05;;;;;;;38.92;24.67;;;11.90;99.90;;;;;;4166932;28;20032;-81
2021/11/19 08:11:11;;;;;;;35.92;24.25;;;11.90;99.90;;;;;;4153985;28;20096;-81
2021/11/19 08:13:12;;;;;;;39.45;26.30;;;11.90;99.90;;;;;;4167442;28;20037;-81
2021/11/19 08:15:24;;;;;;;36.38;24.63;;;12.00;99.90;;;;;;4169820;28;20119;-81
2021/11/19 08:17:35;;;;;;;36.72;24.08;;;12.00;99.90;;;;;;4170125;28;20041;-80
2021/11/19 08:19:44;;;;;;;29.58;21.65;;;12.00;99.90;;;;;;4164263;28;20091;-81
2021/11/19 08:21:46;;;;;;;30.77;23.40;;;12.10;99.90;;;;;;4154994;28;20468;-81
2021/11/19 08:24:03;;;;;;;28.92;21.45;;;12.20;99.90;;;;;;4155450;28;20038;-82
2021/11/19 08:26:08;;;;;;;35.20;21.17;;;12.30;99.90;;;;;;4160297;28;20485;-81
2021/11/19 08:28:14;;;;;;;31.17;21.50;;;12.30;99.90;;;;;;4166000;28;20139;-81
2021/11/19 08:30:30;;;;;;;33.28;21.30;;;12.20;99.90;;;;;;4173157;28;20060;-81
2021/11/19 08:32:33;;;;;;;32.50;21.02;;;12.30;99.90;;;;;;4164171;28;20043;-82
2021/11/19 08:34:42;;;;;;;48.15;21.90;;;12.30;99.90;;;;;;4162759;28;20506;-82
2021/11/19 08:36:44;;;;;;;28.45;20.05;;;12.40;99.90;;;;;;4155355;28;20615;-81
2021/11/19 08:38:53;;;;;;;34.17;22.45;;;12.40;99.90;;;;;;4152935;28;20045;-81
2021/11/19 08:40:55;;;;;;;33.88;21.55;;;12.40;99.90;;;;;;4154995;28;20034;-81
2021/11/19 08:42:56;;;;;;;29.95;19.75;;;12.40;99.90;;;;;;4161982;28;20048;-82
2021/11/19 08:44:57;;;;;;;29.15;19.98;;;12.40;99.90;;;;;;4160762;28;20049;-81
2021/11/19 08:46:57;;;;;;;27.20;18.77;;;12.40;99.90;;;;;;4152122;28;20464;-82
2021/11/19 08:49:10;;;;;;;26.63;19.65;;;12.50;99.90;;;;;;4161329;28;20044;-81
2021/11/19 08:51:18;;;;;;;27.35;19.27;;;12.40;99.90;;;;;;4178744;28;20559;-82
2021/11/19 08:53:19;;;;;;;26.05;17.70;;;12.50;99.90;;;;;;4149789;28;20125;-81
2021/11/19 08:55:27;;;;;;;28.60;19.05;;;12.60;99.90;;;;;;4175111;28;20040;-81
2021/11/19 08:57:28;;;;;;;28.00;20.00;;;12.60;99.90;;;;;;4171980;28;20096;-82
2021/11/19 08:59:33;;;;;;;27.38;20.38;;;12.50;99.90;;;;;;4170259;28;20049;-80
2021/11/19 09:01:37;;;;;;;23.60;16.85;;;12.60;99.90;;;;;;4155322;28;20046;-80
2021/11/19 09:03:41;;;;;;;27.88;20.02;;;12.60;99.90;;;;;;4171949;28;20056;-80
2021/11/19 09:05:46;;;;;;;28.10;17.75;;;12.70;99.90;;;;;;4152069;28;20132;-81
2021/11/19 09:07:48;;;;;;;36.65;19.10;;;12.60;99.90;;;;;;4165071;28;20037;-80
2021/11/19 09:09:50;;;;;;;27.80;17.52;;;12.70;99.90;;;;;;4158506;28;20046;-79
2021/11/19 09:11:51;;;;;;;27.05;18.35;;;12.80;99.90;;;;;;4175985;28;20413;-81
2021/11/19 09:13:56;;;;;;;26.48;17.35;;;12.90;99.90;;;;;;4174832;28;20064;-82
2021/11/19 09:16:00;;;;;;;26.77;18.00;;;13.00;99.90;;;;;;4164472;28;20243;-80
2021/11/19 09:18:21;;;;;;;26.58;17.58;;;12.90;99.90;;;;;;4166402;28;20074;-82
2021/11/19 09:21:08;;;;;;;29.55;17.23;;;13.00;99.90;;;;;;4163119;28;20044;-80
2021/11/19 09:23:11;;;;;;;23.27;16.65;;;13.00;99.90;;;;;;4158306;28;20120;-81
2021/11/19 09:25:16;;;;;;;26.00;17.02;;;13.00;99.90;;;;;;4163038;28;20516;-81
2021/11/19 09:27:19;;;;;;;30.15;16.95;;;13.10;99.90;;;;;;4168226;28;20404;-80
2021/11/19 09:29:34;;;;;;;26.30;15.73;;;13.10;99.90;;;;;;4169728;28;20128;-79
2021/11/19 09:31:36;;;;;;;22.60;16.05;;;13.00;99.90;;;;;;4161391;28;20068;-80
2021/11/19 09:33:38;;;;;;;21.73;16.65;;;13.10;99.90;;;;;;4154547;28;20603;-80
2021/11/19 09:35:40;;;;;;;24.38;15.88;;;13.20;99.90;;;;;;4154291;28;20145;-80
2021/11/19 09:37:42;;;;;;;25.38;16.75;;;13.30;99.90;;;;;;4173912;28;20688;-80
2021/11/19 09:39:46;;;;;;;21.70;14.45;;;13.40;99.90;;;;;;4158183;28;20072;-80
2021/11/19 09:42:20;;;;;;;22.85;15.13;;;13.50;99.90;;;;;;4161282;28;20385;-80
2021/11/19 09:44:51;;;;;;;24.02;15.55;;;13.50;99.90;;;;;;4155643;28;20448;-80
2021/11/19 09:47:29;;;;;;;24.63;13.77;;;13.50;99.90;;;;;;4160092;28;20689;-81
2021/11/19 09:49:38;;;;;;;26.38;13.38;;;13.50;99.90;;;;;;4155301;28;20041;-80
2021/11/19 09:52:31;;;;;;;20.40;12.70;;;13.50;99.90;;;;;;4170846;28;20045;-79
2021/11/19 09:55:00;;;;;;;17.75;11.43;;;13.50;99.90;;;;;;4156252;28;20518;-80
2021/11/19 09:57:22;;;;;;;24.15;13.40;;;13.50;99.90;;;;;;4158555;28;21396;-80
2021/11/19 09:59:49;;;;;;;24.13;12.15;;;13.60;99.90;;;;;;4147595;28;20509;-80
2021/11/19 10:02:21;;;;;;;19.75;11.15;;;13.60;99.90;;;;;;4145669;28;20121;-81
2021/11/19 10:04:43;;;;;;;17.52;11.80;;;13.70;99.90;;;;;;4161894;28;23592;-80
2021/11/19 10:07:21;;;;;;;21.30;11.82;;;13.70;99.90;;;;;;4169890;28;20056;-80
2021/11/19 10:09:42;;;;;;;17.58;10.25;;;13.70;99.90;;;;;;4161471;28;20141;-80
2021/11/19 10:12:22;;;;;;;21.80;10.82;;;13.70;99.90;;;;;;4167146;28;20044;-79
2021/11/19 10:14:43;;;;;;;18.70;9.38;;;13.80;99.90;;;;;;4166135;28;20099;-80
2021/11/19 10:17:08;;;;;;;17.65;9.73;;;13.90;99.90;;;;;;4146905;28;20049;-80
2021/11/19 10:19:42;;;;;;;15.75;10.38;;;13.90;99.90;;;;;;4157310;28;20049;-82
2021/11/19 10:22:31;;;;;;;17.05;9.98;;;14.00;99.90;;;;;;4166074;28;20045;-82
2021/11/19 10:24:43;;;;;;;11.20;8.52;;;14.10;99.90;;;;;;4149030;28;20053;-82
2021/11/19 10:26:45;;;;;;;14.57;8.15;;;14.10;99.90;;;;;;4171506;28;20457;-83
2021/11/19 10:29:02;;;;;;;30.67;10.23;;;14.20;99.90;;;;;;4163099;28;20048;-83
2021/11/19 10:31:08;;;;;;;17.08;10.18;;;14.20;99.90;;;;;;4170162;28;20384;-80
2021/11/19 10:33:24;;;;;;;15.73;9.63;;;14.40;99.90;;;;;;4163116;28;20168;-83
2021/11/19 10:36:02;;;;;;;15.23;9.05;;;14.50;99.90;;;;;;4151840;28;20153;-82
2021/11/19 10:38:29;;;;;;;10.98;8.77;;;14.60;99.90;;;;;;4164582;28;20117;-83
2021/11/19 10:40:48;;;;;;;15.90;8.55;;;14.60;99.90;;;;;;4161787;28;20045;-81
2021/11/19 10:43:24;;;;;;;14.43;9.35;;;14.50;99.90;;;;;;4173337;28;20463;-81
2021/11/19 10:45:59;;;;;;;13.90;8.63;;;14.50;99.90;;;;;;4173819;28;20132;-81
2021/11/19 10:48:06;;;;;;;12.32;8.93;;;14.50;99.90;;;;;;4165361;28;20049;-81
2021/11/19 10:50:43;;;;;;;12.70;8.88;;;14.50;99.90;;;;;;4171643;28;20072;-80